createdAt,value
2018-03-07T00:12:12.985Z,142.73
2018-03-07T00:14:41.211Z,147.43
2018-03-07T00:17:09.411Z,140.20
2018-03-07T00:19:38.546Z,158.47
2018-03-07T00:22:07.503Z,142.47
2018-03-07T00:24:35.700Z,149.77
2018-03-07T00:27:04.069Z,147.30
2018-03-07T00:29:33.086Z,156.03
2018-03-07T00:32:01.438Z,149.77
2018-03-07T00:34:29.776Z,140.33
2018-03-07T00:36:57.974Z,151.50
2018-03-07T00:39:26.533Z,144.90
2018-03-07T00:41:54.707Z,146.43
2018-03-07T00:44:22.915Z,152.33
2018-03-07T00:46:51.927Z,140.53
2018-03-07T00:49:20.978Z,152.70
2018-03-07T00:51:49.257Z,150.90
2018-03-07T00:54:17.538Z,144.20
2018-03-07T00:56:45.728Z,158.80
2018-03-07T00:59:14.751Z,139.87
2018-03-07T01:01:42.918Z,160.67
2018-03-07T01:04:11.123Z,144.90
2018-03-07T01:06:39.338Z,161.43
2018-03-07T01:09:07.542Z,144.03
2018-03-07T01:11:35.752Z,161.50
2018-03-07T01:14:04.050Z,164.03
2018-03-07T01:16:32.234Z,150.00
2018-03-07T01:19:00.438Z,152.47
2018-03-07T01:21:28.619Z,144.63
2018-03-07T01:23:56.833Z,156.60
2018-03-07T01:26:25.026Z,146.93
2018-03-07T01:28:53.286Z,145.73
2018-03-07T01:31:21.480Z,149.37
2018-03-07T01:33:49.791Z,157.63
2018-03-07T01:36:18.062Z,153.63
2018-03-07T01:38:46.305Z,156.67
2018-03-07T01:41:14.504Z,154.30
2018-03-07T01:43:42.728Z,159.93
2018-03-07T01:46:10.913Z,145.83
2018-03-07T01:48:39.921Z,158.23
2018-03-07T01:51:09.170Z,165.67
2018-03-07T01:53:37.414Z,161.10
2018-03-07T01:56:05.627Z,154.67
2018-03-07T01:58:33.835Z,159.30
2018-03-07T02:01:02.810Z,148.93
2018-03-07T02:03:31.003Z,146.80
2018-03-07T02:05:59.188Z,159.37
2018-03-07T02:08:28.129Z,156.60
2018-03-07T02:10:56.388Z,157.43
2018-03-07T02:13:24.560Z,146.90
2018-03-07T02:15:52.945Z,155.30
2018-03-07T02:18:21.934Z,157.50
2018-03-07T02:20:50.202Z,156.03
2018-03-07T02:23:18.389Z,149.87
2018-03-07T02:25:46.574Z,146.80
2018-03-07T02:28:14.771Z,139.83
2018-03-07T02:30:42.971Z,148.77
2018-03-07T02:33:11.247Z,158.37
2018-03-07T02:35:39.422Z,162.80
2018-03-07T02:38:07.691Z,166.60
2018-03-07T02:40:36.004Z,160.43
2018-03-07T02:43:04.247Z,162.90
2018-03-07T02:45:32.453Z,154.03
2018-03-07T02:48:00.670Z,157.47
2018-03-07T02:50:28.947Z,158.47
2018-03-07T02:52:58.904Z,152.33
2018-03-07T02:55:27.099Z,161.97
2018-03-07T02:57:55.306Z,160.10
2018-03-07T03:00:24.413Z,162.33
2018-03-07T03:02:52.774Z,149.77
2018-03-07T03:05:20.965Z,159.47
2018-03-07T03:07:49.938Z,150.40
2018-03-07T03:10:18.186Z,144.77
2018-03-07T03:12:46.453Z,155.70
2018-03-07T03:15:14.678Z,160.07
2018-03-07T03:17:43.667Z,168.43
2018-03-07T03:20:11.895Z,167.90
2018-03-07T03:22:40.094Z,171.50
2018-03-07T03:25:08.371Z,170.87
2018-03-07T03:27:36.647Z,155.80
2018-03-07T03:30:04.837Z,155.73
2018-03-07T03:32:33.053Z,163.20
2018-03-07T03:35:01.245Z,173.97
2018-03-07T03:37:29.468Z,171.17
2018-03-07T03:39:58.488Z,165.13
2018-03-07T03:42:27.449Z,175.87
2018-03-07T03:44:56.549Z,173.63
2018-03-07T03:47:25.485Z,170.83
2018-03-07T03:49:53.720Z,169.97
2018-03-07T03:52:22.782Z,164.27
2018-03-07T03:54:51.001Z,154.60
2018-03-07T03:57:19.312Z,159.27
2018-03-07T03:59:47.530Z,166.17
2018-03-07T04:02:16.782Z,190.10
2018-03-07T04:04:44.952Z,169.10
2018-03-07T04:07:13.250Z,161.77
2018-03-07T04:09:41.503Z,163.97
2018-03-07T04:12:09.678Z,179.47
2018-03-07T04:14:37.866Z,164.57
2018-03-07T04:17:06.082Z,160.57
2018-03-07T04:19:34.300Z,168.93
2018-03-07T04:22:02.464Z,168.00
2018-03-07T04:24:30.710Z,161.20
2018-03-07T04:26:58.916Z,171.27
2018-03-07T04:29:27.165Z,152.50
2018-03-07T04:31:55.378Z,167.27
2018-03-07T04:34:23.663Z,181.07
2018-03-07T04:36:51.970Z,170.30
2018-03-07T04:39:20.979Z,164.40
2018-03-07T04:41:49.185Z,162.70
2018-03-07T04:44:17.423Z,171.97
2018-03-07T04:46:45.612Z,171.83
2018-03-07T04:49:13.895Z,162.40
2018-03-07T04:51:42.095Z,168.70
2018-03-07T04:54:10.387Z,160.60
2018-03-07T04:56:38.697Z,184.07
2018-03-07T04:59:06.875Z,174.73
2018-03-07T05:01:35.057Z,167.70
2018-03-07T05:04:03.241Z,171.37
2018-03-07T05:06:31.662Z,161.77
2018-03-07T05:08:59.861Z,187.33
2018-03-07T05:11:28.035Z,179.93
2018-03-07T05:13:56.986Z,176.10
2018-03-07T05:16:25.200Z,177.20
2018-03-07T05:18:54.172Z,191.47
2018-03-07T05:21:22.439Z,167.50
2018-03-07T05:23:50.623Z,170.73
2018-03-07T05:26:18.825Z,160.70
2018-03-07T05:28:47.358Z,178.07
2018-03-07T05:31:15.560Z,191.37
2018-03-07T05:33:44.526Z,181.40
2018-03-07T05:36:12.730Z,187.30
2018-03-07T05:38:41.688Z,203.60
2018-03-07T05:41:09.871Z,188.57
2018-03-07T05:43:38.097Z,183.30
2018-03-07T05:46:06.374Z,196.30
2018-03-07T05:48:34.656Z,191.63
2018-03-07T05:51:02.926Z,193.50
2018-03-07T05:53:31.239Z,201.87
2018-03-07T05:55:59.456Z,207.83
2018-03-07T05:58:27.712Z,200.67
2018-03-07T06:00:56.796Z,203.87
2018-03-07T06:03:25.776Z,206.87
2018-03-07T06:05:53.968Z,186.90
2018-03-07T06:08:22.945Z,187.40
2018-03-07T06:10:51.999Z,213.50
2018-03-07T06:13:20.728Z,198.30
2018-03-07T06:15:48.963Z,209.33
2018-03-07T06:18:17.241Z,197.93
2018-03-07T06:20:45.550Z,209.00
2018-03-07T06:23:13.735Z,208.37
2018-03-07T06:25:41.915Z,216.17
2018-03-07T06:28:10.150Z,206.07
2018-03-07T06:30:38.411Z,228.70
2018-03-07T06:33:06.732Z,232.50
2018-03-07T06:35:34.966Z,214.93
2018-03-07T06:38:03.172Z,223.83
2018-03-07T06:40:31.435Z,225.73
2018-03-07T06:42:59.715Z,222.37
2018-03-07T06:45:27.937Z,204.23
2018-03-07T06:47:56.186Z,217.20
2018-03-07T06:50:24.416Z,216.23
2018-03-07T06:52:52.649Z,215.23
2018-03-07T06:55:21.648Z,231.17
2018-03-07T06:57:49.834Z,225.73
2018-03-07T07:00:18.120Z,236.60
2018-03-07T07:02:46.372Z,243.43
2018-03-07T07:05:14.601Z,229.97
2018-03-07T07:07:42.810Z,242.50
2018-03-07T07:10:11.785Z,261.80
2018-03-07T07:12:40.752Z,245.10
2018-03-07T07:15:09.013Z,229.90
2018-03-07T07:17:37.273Z,250.63
2018-03-07T07:20:05.479Z,231.07
2018-03-07T07:22:33.948Z,251.37
2018-03-07T07:25:03.064Z,258.70
2018-03-07T07:27:31.273Z,242.30
2018-03-07T07:29:59.489Z,262.43
2018-03-07T07:32:27.808Z,258.10
2018-03-07T07:34:56.879Z,250.13
2018-03-07T07:37:25.868Z,246.10
2018-03-07T07:39:54.075Z,239.30
2018-03-07T07:42:22.280Z,218.83
2018-03-07T07:44:50.493Z,260.20
2018-03-07T07:47:18.722Z,243.97
2018-03-07T07:49:47.005Z,251.23
2018-03-07T07:52:15.273Z,240.03
2018-03-07T07:54:43.490Z,246.00
2018-03-07T07:57:11.766Z,243.70
2018-03-07T07:59:39.952Z,233.13
2018-03-07T08:02:08.998Z,253.73
2018-03-07T08:04:37.352Z,238.23
2018-03-07T08:07:05.656Z,249.97
2018-03-07T08:09:33.879Z,261.17
2018-03-07T08:12:02.921Z,232.73
2018-03-07T08:14:31.236Z,233.57
2018-03-07T08:16:59.528Z,236.60
2018-03-07T08:19:28.242Z,224.47
2018-03-07T08:21:58.099Z,229.87
2018-03-07T08:24:26.346Z,249.97
2018-03-07T08:26:54.569Z,222.97
2018-03-07T08:29:23.562Z,225.10
2018-03-07T08:31:51.837Z,249.53
2018-03-07T08:34:20.805Z,252.50
2018-03-07T08:36:49.067Z,246.30
2018-03-07T08:39:17.359Z,231.40
2018-03-07T08:41:45.656Z,229.03
2018-03-07T08:44:13.966Z,240.47
2018-03-07T08:46:42.290Z,238.00
2018-03-07T08:49:10.574Z,224.43
2018-03-07T08:51:39.552Z,240.97
2018-03-07T08:54:07.884Z,250.87
2018-03-07T08:56:40.963Z,229.13
2018-03-07T09:02:35.081Z,221.87
2018-03-07T09:05:04.369Z,227.17
2018-03-07T09:07:33.734Z,224.80
2018-03-07T09:13:12.971Z,206.80
2018-03-07T09:15:42.172Z,245.67
2018-03-07T09:18:10.428Z,246.33
2018-03-07T09:23:35.890Z,211.73
2018-03-07T09:26:05.065Z,223.43
2018-03-07T09:28:33.482Z,234.47
2018-03-07T09:31:01.927Z,237.47
2018-03-07T09:33:31.224Z,183.30
2018-03-07T09:36:01.224Z,210.37
2018-03-07T09:38:30.063Z,216.17
2018-03-07T09:40:58.869Z,221.63
2018-03-07T09:43:27.314Z,201.60
2018-03-07T09:45:57.632Z,222.67
2018-03-07T09:48:27.034Z,227.73
2018-03-07T09:50:56.859Z,210.97
2018-03-07T09:56:50.457Z,221.37
2018-03-07T09:59:21.928Z,230.63
2018-03-07T10:01:51.365Z,210.83
2018-03-07T10:04:22.698Z,215.03
2018-03-07T10:09:31.253Z,228.37
2018-03-07T10:11:59.508Z,213.17
2018-03-07T10:14:27.972Z,201.73
2018-03-07T10:16:56.162Z,200.83
2018-03-07T10:19:24.358Z,197.07
2018-03-07T10:21:53.399Z,211.60
2018-03-07T10:24:21.597Z,212.00
2018-03-07T10:26:49.918Z,191.17
2018-03-07T10:29:18.155Z,214.73
2018-03-07T10:31:47.425Z,215.83
2018-03-07T10:34:15.663Z,209.87
2018-03-07T10:36:44.660Z,212.77
2018-03-07T10:39:13.732Z,208.17
2018-03-07T10:41:41.955Z,224.40
2018-03-07T10:44:10.166Z,214.83
2018-03-07T10:46:38.406Z,194.77
2018-03-07T10:49:06.648Z,195.30
2018-03-07T10:51:35.088Z,191.33
2018-03-07T10:54:03.473Z,203.03
2018-03-07T10:56:31.800Z,210.83
2018-03-07T10:59:00.320Z,205.30
2018-03-07T11:01:28.566Z,212.97
2018-03-07T11:03:56.749Z,194.10
2018-03-07T11:06:25.355Z,185.70
2018-03-07T11:08:53.569Z,177.70
2018-03-07T11:11:22.635Z,194.70
2018-03-07T11:13:50.891Z,184.70
2018-03-07T11:16:19.142Z,175.47
2018-03-07T11:18:47.323Z,193.47
2018-03-07T11:21:15.568Z,177.77
2018-03-07T11:23:43.813Z,165.53
2018-03-07T11:26:12.134Z,188.43
2018-03-07T11:28:40.556Z,172.40
2018-03-07T11:31:09.043Z,186.73
2018-03-07T11:33:37.372Z,186.67
2018-03-07T11:36:05.590Z,171.23
2018-03-07T11:38:33.814Z,187.90
2018-03-07T11:41:02.201Z,180.63
2018-03-07T11:43:30.591Z,188.77
2018-03-07T11:45:58.825Z,175.40
2018-03-07T11:48:27.761Z,149.97
2018-03-07T11:50:55.969Z,168.60
2018-03-07T11:53:24.243Z,186.10
2018-03-07T11:55:52.415Z,165.53
2018-03-07T11:58:21.252Z,165.63
2018-03-07T12:00:49.486Z,156.20
2018-03-07T12:03:17.698Z,161.07
2018-03-07T12:05:45.940Z,157.47
2018-03-07T12:08:14.153Z,164.67
2018-03-07T12:10:42.402Z,155.13
2018-03-07T12:13:11.443Z,158.80
2018-03-07T12:15:39.704Z,150.27
2018-03-07T12:18:08.801Z,142.43
2018-03-07T12:20:37.046Z,146.47
2018-03-07T12:23:06.017Z,159.63
2018-03-07T12:25:35.027Z,131.27
2018-03-07T12:28:04.036Z,163.93
2018-03-07T12:30:32.295Z,151.90
2018-03-07T12:33:01.629Z,160.57
2018-03-07T12:35:29.808Z,166.47
2018-03-07T12:37:58.075Z,162.40
2018-03-07T12:40:26.352Z,164.07
2018-03-07T12:42:54.627Z,160.03
2018-03-07T12:45:22.883Z,158.30
2018-03-07T12:47:51.073Z,156.33
2018-03-07T12:50:19.255Z,150.70
2018-03-07T12:52:47.448Z,156.23
2018-03-07T12:55:16.173Z,165.17
2018-03-07T12:57:44.502Z,154.83
2018-03-07T13:00:12.790Z,145.47
2018-03-07T13:02:41.877Z,149.90
2018-03-07T13:05:10.110Z,159.13
2018-03-07T13:07:38.420Z,139.90
2018-03-07T13:10:19.334Z,130.47
2018-03-07T13:12:48.656Z,143.33
2018-03-07T13:15:17.121Z,147.50
2018-03-07T13:17:46.251Z,125.33
2018-03-07T13:20:14.591Z,104.33
2018-03-07T13:22:43.599Z,129.83
2018-03-07T13:25:11.895Z,134.53
2018-03-07T13:27:40.134Z,136.70
2018-03-07T13:30:09.306Z,138.73
2018-03-07T13:32:37.517Z,134.47
2018-03-07T13:35:05.792Z,148.83
2018-03-07T13:37:34.011Z,134.37
2018-03-07T13:40:02.277Z,132.00
2018-03-07T13:42:30.822Z,126.03
2018-03-07T13:44:59.095Z,126.03
2018-03-07T13:47:27.579Z,126.60
2018-03-07T13:49:55.886Z,134.60
2018-03-07T13:52:24.146Z,127.00
2018-03-07T13:54:52.335Z,140.23
2018-03-07T13:57:24.967Z,122.50
2018-03-07T14:00:02.923Z,119.40
2018-03-07T14:02:34.629Z,142.93
2018-03-07T14:05:04.360Z,134.57
2018-03-07T14:07:35.172Z,146.37
2018-03-07T14:10:06.132Z,128.43
2018-03-07T14:15:58.004Z,110.37
2018-03-07T14:24:24.310Z,129.03
2018-03-07T14:26:58.371Z,135.13
2018-03-07T14:29:26.596Z,126.73
2018-03-07T14:31:55.383Z,116.70
2018-03-07T14:34:23.588Z,126.73
2018-03-07T14:36:51.900Z,129.73
2018-03-07T14:45:20.176Z,127.27
2018-03-07T14:47:48.782Z,133.60
2018-03-07T14:50:17.367Z,126.33
2018-03-07T14:52:45.708Z,137.67
2018-03-07T14:55:14.770Z,128.10
2018-03-07T14:57:43.230Z,130.43
2018-03-07T15:00:11.679Z,122.93
2018-03-07T15:02:39.899Z,115.93
2018-03-07T15:19:56.853Z,93.97
2018-03-07T15:22:34.324Z,110.70
2018-03-07T15:25:02.572Z,110.57
2018-03-07T15:27:31.735Z,104.70
2018-03-07T15:30:00.123Z,107.07
2018-03-07T15:38:13.797Z,104.40
2018-03-07T15:57:53.756Z,87.57
2018-03-07T16:00:22.591Z,99.90
2018-03-07T16:02:51.655Z,96.13
2018-03-07T16:05:20.938Z,104.30
2018-03-07T16:07:49.263Z,111.20
2018-03-07T16:10:17.474Z,106.10
2018-03-07T16:12:45.648Z,97.47
2018-03-07T16:15:13.869Z,116.37
2018-03-07T16:17:42.828Z,108.20
2018-03-07T16:20:11.029Z,102.83
2018-03-07T16:22:40.295Z,117.13
2018-03-07T16:25:09.789Z,113.03
2018-03-07T16:27:38.437Z,107.77
2018-03-07T16:30:06.867Z,101.70
2018-03-07T16:33:02.702Z,105.73
2018-03-07T16:38:32.944Z,103.67
2018-03-07T16:41:05.353Z,103.60
2018-03-07T16:43:55.108Z,100.53
2018-03-07T16:46:23.432Z,104.33
2018-03-07T16:48:51.923Z,108.20
2018-03-07T16:51:20.213Z,107.50
2018-03-07T16:53:48.731Z,108.63
2018-03-07T16:56:17.255Z,109.80
2018-03-07T16:58:46.286Z,115.13
2018-03-07T17:01:14.526Z,116.30
2018-03-07T17:03:42.821Z,117.13
2018-03-07T17:12:52.857Z,106.53
2018-03-07T17:15:23.432Z,83.93
2018-03-07T17:17:51.887Z,76.63
2018-03-07T17:23:29.643Z,79.50
2018-03-07T17:25:58.223Z,80.03
2018-03-07T17:28:26.468Z,75.40
2018-03-07T17:30:54.740Z,72.60
2018-03-07T17:33:23.117Z,61.53
2018-03-07T17:35:51.337Z,75.20
2018-03-07T17:38:19.587Z,67.03
2018-03-07T17:40:47.816Z,64.03
2018-03-07T17:43:16.237Z,63.60
2018-03-07T17:45:44.565Z,61.20
2018-03-07T17:48:13.646Z,61.33
2018-03-07T17:50:42.994Z,61.90
2018-03-07T17:53:11.290Z,59.00
2018-03-07T17:55:39.595Z,71.43
2018-03-07T17:58:07.804Z,61.93
2018-03-07T18:00:36.150Z,65.90
2018-03-07T18:03:05.146Z,57.83
2018-03-07T18:05:34.124Z,56.17
2018-03-07T18:08:02.357Z,61.87
2018-03-07T18:10:30.618Z,66.60
2018-03-07T18:12:58.904Z,67.03
2018-03-07T18:15:27.116Z,72.80
2018-03-07T18:17:55.484Z,74.13
2018-03-07T18:20:23.681Z,77.70
2018-03-07T18:22:52.255Z,66.20
2018-03-07T18:25:20.620Z,65.57
2018-03-07T18:27:48.901Z,68.97
2018-03-07T18:30:17.328Z,69.97
2018-03-07T18:32:45.597Z,67.77
2018-03-07T18:35:14.046Z,72.10
2018-03-07T18:37:42.442Z,66.50
2018-03-07T18:40:10.753Z,66.40
2018-03-07T18:42:39.022Z,64.17
2018-03-07T18:45:07.845Z,60.70
2018-03-07T18:47:36.079Z,59.37
2018-03-07T18:50:04.330Z,62.33
2018-03-07T18:52:33.277Z,62.23
2018-03-07T18:55:01.866Z,61.57
2018-03-07T18:57:30.055Z,58.80
2018-03-07T18:59:59.115Z,52.30
2018-03-07T19:02:27.327Z,61.83
2018-03-07T19:04:56.375Z,58.80
2018-03-07T19:07:24.692Z,64.20
2018-03-07T19:09:52.897Z,66.47
2018-03-07T19:12:21.885Z,62.57
2018-03-07T19:14:50.935Z,66.73
2018-03-07T19:17:19.289Z,67.13
2018-03-07T19:19:47.824Z,65.73
2018-03-07T19:22:16.053Z,65.20
2018-03-07T19:24:45.151Z,62.83
2018-03-07T19:27:13.464Z,71.63
2018-03-07T19:29:42.442Z,67.53
2018-03-07T19:32:11.507Z,69.73
2018-03-07T19:34:39.697Z,73.07
2018-03-07T19:37:08.150Z,77.33
2018-03-07T19:39:36.536Z,76.07
2018-03-07T19:42:04.822Z,109.90
2018-03-07T19:44:33.079Z,100.67
2018-03-07T19:47:01.301Z,80.67
2018-03-07T19:49:29.587Z,75.30
2018-03-07T19:51:59.415Z,73.20
2018-03-07T19:54:27.671Z,82.80
2018-03-07T19:56:56.742Z,80.03
2018-03-07T19:59:25.046Z,84.10
2018-03-07T20:01:54.008Z,128.07
2018-03-07T20:04:22.328Z,91.70
2018-03-07T20:06:50.612Z,88.13
2018-03-07T20:09:18.970Z,89.73
2018-03-07T20:11:48.056Z,84.47
2018-03-07T20:14:17.867Z,80.50
2018-03-07T20:16:46.999Z,70.80
2018-03-07T20:19:15.197Z,76.30
2018-03-07T20:21:43.452Z,72.73
2018-03-07T20:24:11.768Z,66.33
2018-03-07T20:26:39.983Z,72.33
2018-03-07T20:29:08.206Z,71.83
2018-03-07T20:31:36.427Z,72.37
2018-03-07T20:34:04.753Z,71.30
2018-03-07T20:36:33.007Z,67.27
2018-03-07T20:39:01.226Z,66.23
2018-03-07T20:41:29.444Z,77.57
2018-03-07T20:43:57.654Z,68.93
2018-03-07T20:46:25.990Z,75.67
2018-03-07T20:48:54.182Z,75.50
2018-03-07T20:51:23.321Z,75.33
2018-03-07T20:53:51.585Z,78.20
2018-03-07T20:56:19.856Z,77.80
2018-03-07T20:58:48.171Z,81.77
2018-03-07T21:01:16.420Z,78.30
2018-03-07T21:03:44.853Z,80.23
2018-03-07T21:06:13.842Z,86.50
2018-03-07T21:08:42.839Z,82.73
2018-03-07T21:11:11.118Z,90.10
2018-03-07T21:13:39.363Z,79.90
2018-03-07T21:16:07.616Z,80.27
2018-03-07T21:18:36.602Z,86.90
2018-03-07T21:21:04.808Z,82.13
2018-03-07T21:23:33.016Z,80.50
2018-03-07T21:26:01.264Z,84.90
2018-03-07T21:28:29.602Z,88.90
2018-03-07T21:30:59.253Z,85.37
2018-03-07T21:33:27.913Z,94.53
2018-03-07T21:35:56.142Z,86.37
2018-03-07T21:38:24.367Z,88.93
2018-03-07T21:40:52.688Z,93.20
2018-03-07T21:43:20.923Z,93.37
2018-03-07T21:45:49.181Z,89.47
2018-03-07T21:48:17.407Z,94.37
2018-03-07T21:50:45.942Z,94.73
2018-03-07T21:53:14.285Z,86.80
2018-03-07T21:55:42.524Z,85.73
2018-03-07T21:58:10.783Z,86.17
2018-03-07T22:00:38.973Z,90.47
2018-03-07T22:03:08.107Z,93.73
2018-03-07T22:05:36.387Z,94.13
2018-03-07T22:08:04.574Z,99.40
2018-03-07T22:10:32.850Z,95.03
2018-03-07T22:13:01.817Z,92.00
2018-03-07T22:15:30.934Z,102.37
2018-03-07T22:17:59.348Z,107.30
2018-03-07T22:20:28.742Z,89.03
2018-03-07T22:22:57.055Z,85.63
2018-03-07T22:25:27.815Z,93.37
2018-03-07T22:27:56.888Z,93.63
2018-03-07T22:30:25.274Z,101.50
2018-03-07T22:32:53.469Z,98.17
2018-03-07T22:35:21.733Z,96.00
2018-03-07T22:37:49.951Z,98.07
2018-03-07T22:40:18.195Z,102.77
2018-03-07T22:42:47.226Z,99.87
2018-03-07T22:45:15.436Z,103.53
2018-03-07T22:47:43.799Z,101.60
2018-03-07T22:50:12.130Z,103.67
2018-03-07T22:52:40.343Z,106.30
2018-03-07T22:55:08.614Z,101.77
2018-03-07T22:57:37.186Z,104.57
2018-03-07T23:00:05.837Z,104.80
2018-03-07T23:02:34.019Z,123.83
2018-03-07T23:05:02.282Z,118.73
2018-03-07T23:07:30.506Z,115.57
2018-03-07T23:09:59.445Z,111.83
2018-03-07T23:12:27.891Z,106.20
2018-03-07T23:14:56.078Z,107.40
2018-03-07T23:17:24.388Z,112.80
2018-03-07T23:19:52.632Z,107.33
2018-03-07T23:22:20.813Z,102.10
2018-03-07T23:24:50.129Z,112.20
2018-03-07T23:27:19.126Z,103.80
2018-03-07T23:29:47.345Z,109.87
2018-03-07T23:32:15.538Z,102.00
2018-03-07T23:34:43.761Z,105.53
2018-03-07T23:37:12.094Z,101.60
2018-03-07T23:39:40.300Z,103.67
2018-03-07T23:42:08.639Z,109.10
2018-03-07T23:44:36.845Z,95.70
2018-03-07T23:47:05.094Z,104.07
2018-03-07T23:49:33.303Z,104.67
2018-03-07T23:52:01.543Z,97.70
2018-03-07T23:54:30.523Z,106.30
2018-03-07T23:56:58.735Z,100.50
2018-03-07T23:59:27.111Z,106.87
